Athens, Wisconsin
Current Conditions -  °F | °C
As of 11:55 AM on Sunday 21 Dec 2014 (Local Time) from KMDZ Reporting Station
Moderate Fog Moderate Fog  
Wind Chill: 20°   Ceiling: 300
Heat Index: 30°   Visibility: 0.25mi
Dew Point: 30°   Wind: 13mph
Humidity: 99%   Direction: 150°SSE
Pressure: 29.93"   Gusts: 18mph
Location:  45.03°N, 90.07°W
Report Text: KMDZ 211755Z AUTO 15011G16KT 1/4SM FZFG OVC003 M01/M01 A2993 RMK AO2 T10101012 11008 21025
Loading
Personal Weather Stations






























Interactive Weather Map New forecast layout! Learn more

10-Day Weather Forecast

Advertisements
Track Severe Weather on mobile